sensor_id;sensor_type;location;lat;lon;timestamp;P1;durP1;ratioP1;P2;durP2;ratioP2
17171;SDS011;8701;50.150;8.756;2023-04-06T00:03:28;8.80;;;4.53;;
17171;SDS011;8701;50.150;8.756;2023-04-06T00:07:30;7.33;;;4.30;;
17171;SDS011;8701;50.150;8.756;2023-04-06T00:11:33;9.33;;;4.53;;
17171;SDS011;8701;50.150;8.756;2023-04-06T00:15:36;8.13;;;4.60;;
17171;SDS011;8701;50.150;8.756;2023-04-06T00:19:39;8.70;;;4.40;;
17171;SDS011;8701;50.150;8.756;2023-04-06T00:23:42;9.37;;;4.37;;
17171;SDS011;8701;50.150;8.756;2023-04-06T00:27:44;11.80;;;5.17;;
17171;SDS011;8701;50.150;8.756;2023-04-06T00:31:47;8.57;;;4.50;;
17171;SDS011;8701;50.150;8.756;2023-04-06T00:35:50;9.00;;;4.80;;
17171;SDS011;8701;50.150;8.756;2023-04-06T00:39:53;10.33;;;4.50;;
17171;SDS011;8701;50.150;8.756;2023-04-06T00:43:56;8.07;;;4.43;;
17171;SDS011;8701;50.150;8.756;2023-04-06T00:47:59;15.17;;;4.93;;
17171;SDS011;8701;50.150;8.756;2023-04-06T00:52:03;12.03;;;4.37;;
17171;SDS011;8701;50.150;8.756;2023-04-06T00:56:06;9.63;;;4.40;;
17171;SDS011;8701;50.150;8.756;2023-04-06T01:00:21;8.27;;;4.27;;
17171;SDS011;8701;50.150;8.756;2023-04-06T01:04:29;8.63;;;4.53;;
17171;SDS011;8701;50.150;8.756;2023-04-06T01:08:34;8.60;;;4.50;;
17171;SDS011;8701;50.150;8.756;2023-04-06T01:12:49;8.80;;;4.40;;
17171;SDS011;8701;50.150;8.756;2023-04-06T01:17:01;11.33;;;4.60;;
17171;SDS011;8701;50.150;8.756;2023-04-06T01:21:07;8.20;;;4.40;;
17171;SDS011;8701;50.150;8.756;2023-04-06T01:25:19;8.87;;;4.30;;
17171;SDS011;8701;50.150;8.756;2023-04-06T01:29:38;8.60;;;4.70;;
17171;SDS011;8701;50.150;8.756;2023-04-06T01:33:44;10.00;;;4.20;;
17171;SDS011;8701;50.150;8.756;2023-04-06T01:37:50;7.57;;;3.90;;
17171;SDS011;8701;50.150;8.756;2023-04-06T01:42:01;6.97;;;3.87;;
17171;SDS011;8701;50.150;8.756;2023-04-06T01:46:05;9.03;;;4.27;;
17171;SDS011;8701;50.150;8.756;2023-04-06T01:50:11;8.87;;;4.23;;
17171;SDS011;8701;50.150;8.756;2023-04-06T01:54:19;9.10;;;4.80;;
17171;SDS011;8701;50.150;8.756;2023-04-06T01:58:32;9.93;;;5.13;;
17171;SDS011;8701;50.150;8.756;2023-04-06T02:02:35;9.07;;;4.17;;
17171;SDS011;8701;50.150;8.756;2023-04-06T02:06:43;8.10;;;4.20;;
17171;SDS011;8701;50.150;8.756;2023-04-06T02:10:47;9.30;;;4.53;;
17171;SDS011;8701;50.150;8.756;2023-04-06T02:15:02;8.13;;;4.23;;
17171;SDS011;8701;50.150;8.756;2023-04-06T02:19:05;9.00;;;4.40;;
17171;SDS011;8701;50.150;8.756;2023-04-06T02:23:08;9.67;;;4.83;;
17171;SDS011;8701;50.150;8.756;2023-04-06T02:27:10;11.00;;;4.37;;
17171;SDS011;8701;50.150;8.756;2023-04-06T02:31:14;8.90;;;4.73;;
17171;SDS011;8701;50.150;8.756;2023-04-06T02:35:18;17.13;;;4.40;;
17171;SDS011;8701;50.150;8.756;2023-04-06T02:39:25;9.97;;;4.43;;
17171;SDS011;8701;50.150;8.756;2023-04-06T02:43:29;9.40;;;4.83;;
17171;SDS011;8701;50.150;8.756;2023-04-06T02:47:41;8.07;;;4.63;;
17171;SDS011;8701;50.150;8.756;2023-04-06T02:51:45;9.37;;;4.57;;
17171;SDS011;8701;50.150;8.756;2023-04-06T02:55:58;9.40;;;4.63;;
17171;SDS011;8701;50.150;8.756;2023-04-06T03:00:10;9.40;;;5.10;;
17171;SDS011;8701;50.150;8.756;2023-04-06T03:04:17;10.73;;;5.27;;
17171;SDS011;8701;50.150;8.756;2023-04-06T03:08:20;9.50;;;4.70;;
17171;SDS011;8701;50.150;8.756;2023-04-06T03:12:25;7.20;;;4.07;;
17171;SDS011;8701;50.150;8.756;2023-04-06T03:16:45;7.60;;;4.40;;
17171;SDS011;8701;50.150;8.756;2023-04-06T03:20:54;8.20;;;4.40;;
17171;SDS011;8701;50.150;8.756;2023-04-06T03:25:02;7.60;;;4.53;;
17171;SDS011;8701;50.150;8.756;2023-04-06T03:29:07;8.50;;;4.20;;
17171;SDS011;8701;50.150;8.756;2023-04-06T03:33:10;9.70;;;5.40;;
17171;SDS011;8701;50.150;8.756;2023-04-06T03:37:24;10.37;;;5.03;;
17171;SDS011;8701;50.150;8.756;2023-04-06T03:41:30;10.13;;;4.47;;
17171;SDS011;8701;50.150;8.756;2023-04-06T03:45:53;11.57;;;5.20;;
17171;SDS011;8701;50.150;8.756;2023-04-06T03:49:55;9.07;;;5.10;;
17171;SDS011;8701;50.150;8.756;2023-04-06T03:53:59;9.30;;;4.97;;
17171;SDS011;8701;50.150;8.756;2023-04-06T03:58:03;8.97;;;5.07;;
17171;SDS011;8701;50.150;8.756;2023-04-06T04:02:05;9.60;;;4.70;;
17171;SDS011;8701;50.150;8.756;2023-04-06T04:06:08;8.03;;;4.77;;
17171;SDS011;8701;50.150;8.756;2023-04-06T04:10:11;7.87;;;4.57;;
17171;SDS011;8701;50.150;8.756;2023-04-06T04:14:14;7.63;;;4.17;;
17171;SDS011;8701;50.150;8.756;2023-04-06T04:18:16;8.83;;;4.87;;
17171;SDS011;8701;50.150;8.756;2023-04-06T04:22:18;13.10;;;5.07;;
17171;SDS011;8701;50.150;8.756;2023-04-06T04:26:22;9.03;;;4.33;;
17171;SDS011;8701;50.150;8.756;2023-04-06T04:30:25;10.70;;;5.23;;
17171;SDS011;8701;50.150;8.756;2023-04-06T04:34:28;11.70;;;4.40;;
17171;SDS011;8701;50.150;8.756;2023-04-06T04:38:30;9.30;;;4.57;;
17171;SDS011;8701;50.150;8.756;2023-04-06T04:42:34;11.80;;;4.63;;
17171;SDS011;8701;50.150;8.756;2023-04-06T04:46:39;9.00;;;4.53;;
17171;SDS011;8701;50.150;8.756;2023-04-06T04:50:44;8.30;;;4.77;;
17171;SDS011;8701;50.150;8.756;2023-04-06T04:54:48;8.40;;;4.50;;
17171;SDS011;8701;50.150;8.756;2023-04-06T04:58:59;8.87;;;4.70;;
17171;SDS011;8701;50.150;8.756;2023-04-06T05:03:04;8.60;;;4.90;;
17171;SDS011;8701;50.150;8.756;2023-04-06T05:07:11;12.60;;;5.03;;
17171;SDS011;8701;50.150;8.756;2023-04-06T05:11:15;10.17;;;4.50;;
17171;SDS011;8701;50.150;8.756;2023-04-06T05:15:23;7.67;;;4.50;;
17171;SDS011;8701;50.150;8.756;2023-04-06T05:19:30;10.60;;;4.80;;
17171;SDS011;8701;50.150;8.756;2023-04-06T05:23:34;12.23;;;4.93;;
17171;SDS011;8701;50.150;8.756;2023-04-06T05:27:37;8.70;;;5.20;;
17171;SDS011;8701;50.150;8.756;2023-04-06T05:31:51;10.73;;;5.10;;
17171;SDS011;8701;50.150;8.756;2023-04-06T05:35:54;9.27;;;4.53;;
17171;SDS011;8701;50.150;8.756;2023-04-06T05:39:57;8.80;;;5.03;;
17171;SDS011;8701;50.150;8.756;2023-04-06T05:44:00;9.93;;;5.23;;
17171;SDS011;8701;50.150;8.756;2023-04-06T05:48:05;8.10;;;4.83;;
17171;SDS011;8701;50.150;8.756;2023-04-06T05:52:08;9.40;;;4.70;;
17171;SDS011;8701;50.150;8.756;2023-04-06T05:56:12;9.57;;;5.40;;
17171;SDS011;8701;50.150;8.756;2023-04-06T06:00:15;11.60;;;4.87;;
17171;SDS011;8701;50.150;8.756;2023-04-06T06:04:32;9.00;;;5.17;;
17171;SDS011;8701;50.150;8.756;2023-04-06T06:08:35;9.53;;;5.00;;
17171;SDS011;8701;50.150;8.756;2023-04-06T06:12:43;10.60;;;5.50;;
17171;SDS011;8701;50.150;8.756;2023-04-06T06:16:46;10.17;;;5.90;;
17171;SDS011;8701;50.150;8.756;2023-04-06T06:20:52;11.50;;;6.10;;
17171;SDS011;8701;50.150;8.756;2023-04-06T06:24:55;10.00;;;5.77;;
17171;SDS011;8701;50.150;8.756;2023-04-06T06:28:58;12.87;;;5.97;;
17171;SDS011;8701;50.150;8.756;2023-04-06T06:33:01;11.07;;;6.47;;
17171;SDS011;8701;50.150;8.756;2023-04-06T06:37:06;11.03;;;5.77;;
17171;SDS011;8701;50.150;8.756;2023-04-06T06:41:11;10.90;;;6.43;;
17171;SDS011;8701;50.150;8.756;2023-04-06T06:45:14;12.47;;;6.37;;
17171;SDS011;8701;50.150;8.756;2023-04-06T06:49:16;16.00;;;6.13;;
17171;SDS011;8701;50.150;8.756;2023-04-06T06:53:20;14.53;;;6.33;;
17171;SDS011;8701;50.150;8.756;2023-04-06T06:57:23;10.20;;;5.70;;
17171;SDS011;8701;50.150;8.756;2023-04-06T07:01:26;14.83;;;6.33;;
17171;SDS011;8701;50.150;8.756;2023-04-06T07:05:29;11.40;;;5.83;;
17171;SDS011;8701;50.150;8.756;2023-04-06T07:09:34;13.10;;;5.73;;
17171;SDS011;8701;50.150;8.756;2023-04-06T07:13:37;12.50;;;6.60;;
17171;SDS011;8701;50.150;8.756;2023-04-06T07:17:39;11.40;;;6.80;;
17171;SDS011;8701;50.150;8.756;2023-04-06T07:21:44;11.50;;;6.90;;
17171;SDS011;8701;50.150;8.756;2023-04-06T07:25:47;11.13;;;6.00;;
17171;SDS011;8701;50.150;8.756;2023-04-06T07:29:51;12.43;;;6.27;;
17171;SDS011;8701;50.150;8.756;2023-04-06T07:33:54;14.50;;;7.10;;
17171;SDS011;8701;50.150;8.756;2023-04-06T07:37:57;11.60;;;6.63;;
17171;SDS011;8701;50.150;8.756;2023-04-06T07:42:01;15.33;;;7.20;;
17171;SDS011;8701;50.150;8.756;2023-04-06T07:46:04;14.60;;;7.77;;
17171;SDS011;8701;50.150;8.756;2023-04-06T07:50:07;10.40;;;6.80;;
17171;SDS011;8701;50.150;8.756;2023-04-06T07:54:10;17.47;;;7.70;;
17171;SDS011;8701;50.150;8.756;2023-04-06T07:58:14;16.00;;;8.30;;
17171;SDS011;8701;50.150;8.756;2023-04-06T08:02:16;15.00;;;8.43;;
17171;SDS011;8701;50.150;8.756;2023-04-06T08:06:19;12.60;;;7.77;;
17171;SDS011;8701;50.150;8.756;2023-04-06T08:10:21;12.43;;;8.23;;
17171;SDS011;8701;50.150;8.756;2023-04-06T08:14:25;14.90;;;8.57;;
17171;SDS011;8701;50.150;8.756;2023-04-06T08:18:27;17.47;;;8.90;;
17171;SDS011;8701;50.150;8.756;2023-04-06T08:22:30;17.23;;;9.17;;
17171;SDS011;8701;50.150;8.756;2023-04-06T08:26:33;17.03;;;8.87;;
17171;SDS011;8701;50.150;8.756;2023-04-06T08:30:36;22.00;;;9.67;;
17171;SDS011;8701;50.150;8.756;2023-04-06T08:34:41;15.87;;;9.80;;
17171;SDS011;8701;50.150;8.756;2023-04-06T08:38:43;16.47;;;9.33;;
17171;SDS011;8701;50.150;8.756;2023-04-06T08:42:48;14.30;;;8.83;;
17171;SDS011;8701;50.150;8.756;2023-04-06T08:46:55;17.83;;;8.50;;
17171;SDS011;8701;50.150;8.756;2023-04-06T08:50:57;17.20;;;9.37;;
17171;SDS011;8701;50.150;8.756;2023-04-06T08:55:00;16.03;;;8.50;;
17171;SDS011;8701;50.150;8.756;2023-04-06T08:59:03;13.27;;;8.00;;
17171;SDS011;8701;50.150;8.756;2023-04-06T09:03:08;15.20;;;8.10;;
17171;SDS011;8701;50.150;8.756;2023-04-06T09:07:14;14.83;;;8.53;;
17171;SDS011;8701;50.150;8.756;2023-04-06T09:11:17;14.33;;;8.50;;
17171;SDS011;8701;50.150;8.756;2023-04-06T09:15:20;18.40;;;7.93;;
17171;SDS011;8701;50.150;8.756;2023-04-06T09:19:24;16.93;;;9.10;;
17171;SDS011;8701;50.150;8.756;2023-04-06T09:23:27;13.33;;;8.27;;
17171;SDS011;8701;50.150;8.756;2023-04-06T09:27:29;14.10;;;8.00;;
17171;SDS011;8701;50.150;8.756;2023-04-06T09:31:32;19.50;;;8.20;;
17171;SDS011;8701;50.150;8.756;2023-04-06T09:35:36;12.57;;;8.20;;
17171;SDS011;8701;50.150;8.756;2023-04-06T09:39:39;13.07;;;7.67;;
17171;SDS011;8701;50.150;8.756;2023-04-06T09:43:41;13.23;;;8.07;;
17171;SDS011;8701;50.150;8.756;2023-04-06T09:47:44;15.03;;;8.30;;
17171;SDS011;8701;50.150;8.756;2023-04-06T09:51:49;13.53;;;7.87;;
17171;SDS011;8701;50.150;8.756;2023-04-06T09:55:57;12.97;;;8.03;;
17171;SDS011;8701;50.150;8.756;2023-04-06T10:00:04;13.40;;;7.30;;
17171;SDS011;8701;50.150;8.756;2023-04-06T10:04:13;15.83;;;7.83;;
17171;SDS011;8701;50.150;8.756;2023-04-06T10:08:25;12.10;;;7.30;;
17171;SDS011;8701;50.150;8.756;2023-04-06T10:12:29;13.87;;;7.90;;
17171;SDS011;8701;50.150;8.756;2023-04-06T10:16:32;13.07;;;7.40;;
17171;SDS011;8701;50.150;8.756;2023-04-06T10:20:35;12.60;;;7.77;;
17171;SDS011;8701;50.150;8.756;2023-04-06T10:24:45;13.47;;;7.30;;
17171;SDS011;8701;50.150;8.756;2023-04-06T10:28:48;12.17;;;7.73;;
17171;SDS011;8701;50.150;8.756;2023-04-06T10:32:51;13.30;;;7.50;;
17171;SDS011;8701;50.150;8.756;2023-04-06T10:36:54;11.07;;;6.63;;
17171;SDS011;8701;50.150;8.756;2023-04-06T10:40:58;13.00;;;7.10;;
17171;SDS011;8701;50.150;8.756;2023-04-06T10:45:06;12.10;;;6.87;;
17171;SDS011;8701;50.150;8.756;2023-04-06T10:49:09;14.50;;;8.27;;
17171;SDS011;8701;50.150;8.756;2023-04-06T10:53:20;12.70;;;6.90;;
17171;SDS011;8701;50.150;8.756;2023-04-06T10:57:28;15.23;;;7.67;;
17171;SDS011;8701;50.150;8.756;2023-04-06T11:01:33;13.57;;;7.17;;
17171;SDS011;8701;50.150;8.756;2023-04-06T11:05:36;13.60;;;7.97;;
17171;SDS011;8701;50.150;8.756;2023-04-06T11:09:38;12.30;;;7.03;;
17171;SDS011;8701;50.150;8.756;2023-04-06T11:13:43;13.37;;;7.90;;
17171;SDS011;8701;50.150;8.756;2023-04-06T11:17:46;13.30;;;7.20;;
17171;SDS011;8701;50.150;8.756;2023-04-06T11:21:49;13.73;;;6.90;;
17171;SDS011;8701;50.150;8.756;2023-04-06T11:25:52;15.40;;;7.97;;
17171;SDS011;8701;50.150;8.756;2023-04-06T11:29:57;15.33;;;7.30;;
17171;SDS011;8701;50.150;8.756;2023-04-06T11:34:00;15.80;;;8.80;;
17171;SDS011;8701;50.150;8.756;2023-04-06T11:38:10;14.10;;;7.80;;
17171;SDS011;8701;50.150;8.756;2023-04-06T11:42:12;14.80;;;7.50;;
17171;SDS011;8701;50.150;8.756;2023-04-06T11:46:23;13.70;;;8.20;;
17171;SDS011;8701;50.150;8.756;2023-04-06T11:50:31;13.13;;;8.80;;
17171;SDS011;8701;50.150;8.756;2023-04-06T11:54:35;14.17;;;8.77;;
17171;SDS011;8701;50.150;8.756;2023-04-06T11:58:38;12.60;;;7.33;;
17171;SDS011;8701;50.150;8.756;2023-04-06T12:02:45;13.30;;;8.00;;
17171;SDS011;8701;50.150;8.756;2023-04-06T12:06:47;15.50;;;6.80;;
17171;SDS011;8701;50.150;8.756;2023-04-06T12:10:50;12.20;;;7.30;;
17171;SDS011;8701;50.150;8.756;2023-04-06T12:14:52;15.10;;;8.10;;
17171;SDS011;8701;50.150;8.756;2023-04-06T12:18:56;12.13;;;7.17;;
17171;SDS011;8701;50.150;8.756;2023-04-06T12:22:58;13.80;;;7.63;;
17171;SDS011;8701;50.150;8.756;2023-04-06T12:27:01;14.57;;;7.30;;
17171;SDS011;8701;50.150;8.756;2023-04-06T12:31:04;14.20;;;6.90;;
17171;SDS011;8701;50.150;8.756;2023-04-06T12:35:08;15.90;;;7.83;;
17171;SDS011;8701;50.150;8.756;2023-04-06T12:39:12;14.70;;;7.93;;
17171;SDS011;8701;50.150;8.756;2023-04-06T12:43:14;12.53;;;6.87;;
17171;SDS011;8701;50.150;8.756;2023-04-06T12:47:16;11.33;;;6.07;;
17171;SDS011;8701;50.150;8.756;2023-04-06T12:51:20;13.93;;;7.73;;
17171;SDS011;8701;50.150;8.756;2023-04-06T12:55:23;17.40;;;8.77;;
17171;SDS011;8701;50.150;8.756;2023-04-06T12:59:25;14.23;;;7.37;;
17171;SDS011;8701;50.150;8.756;2023-04-06T13:03:28;12.53;;;6.90;;
17171;SDS011;8701;50.150;8.756;2023-04-06T13:07:32;12.90;;;7.33;;
17171;SDS011;8701;50.150;8.756;2023-04-06T13:11:34;10.17;;;6.10;;
17171;SDS011;8701;50.150;8.756;2023-04-06T13:15:37;13.20;;;7.40;;
17171;SDS011;8701;50.150;8.756;2023-04-06T13:19:39;13.47;;;7.67;;
17171;SDS011;8701;50.150;8.756;2023-04-06T13:23:43;15.00;;;7.10;;
17171;SDS011;8701;50.150;8.756;2023-04-06T13:27:46;16.33;;;6.90;;
17171;SDS011;8701;50.150;8.756;2023-04-06T13:31:49;11.73;;;6.30;;
17171;SDS011;8701;50.150;8.756;2023-04-06T13:35:51;10.10;;;5.00;;
17171;SDS011;8701;50.150;8.756;2023-04-06T13:39:56;12.27;;;7.30;;
17171;SDS011;8701;50.150;8.756;2023-04-06T13:43:58;12.17;;;5.97;;
17171;SDS011;8701;50.150;8.756;2023-04-06T13:48:00;15.20;;;6.80;;
17171;SDS011;8701;50.150;8.756;2023-04-06T13:52:03;11.40;;;5.00;;
17171;SDS011;8701;50.150;8.756;2023-04-06T13:56:07;10.97;;;6.00;;
17171;SDS011;8701;50.150;8.756;2023-04-06T14:00:10;9.97;;;5.50;;
17171;SDS011;8701;50.150;8.756;2023-04-06T14:04:15;12.83;;;6.50;;
17171;SDS011;8701;50.150;8.756;2023-04-06T14:08:17;7.60;;;4.53;;
17171;SDS011;8701;50.150;8.756;2023-04-06T14:12:21;12.07;;;6.83;;
17171;SDS011;8701;50.150;8.756;2023-04-06T14:16:23;9.03;;;4.87;;
17171;SDS011;8701;50.150;8.756;2023-04-06T14:20:25;10.30;;;5.50;;
17171;SDS011;8701;50.150;8.756;2023-04-06T14:24:28;11.03;;;5.27;;
17171;SDS011;8701;50.150;8.756;2023-04-06T14:28:32;11.27;;;6.33;;
17171;SDS011;8701;50.150;8.756;2023-04-06T14:32:35;8.20;;;4.77;;
17171;SDS011;8701;50.150;8.756;2023-04-06T14:36:38;10.10;;;5.37;;
17171;SDS011;8701;50.150;8.756;2023-04-06T14:40:40;9.07;;;4.60;;
17171;SDS011;8701;50.150;8.756;2023-04-06T14:44:43;7.47;;;4.37;;
17171;SDS011;8701;50.150;8.756;2023-04-06T14:48:46;10.37;;;6.27;;
17171;SDS011;8701;50.150;8.756;2023-04-06T14:52:48;12.03;;;5.20;;
17171;SDS011;8701;50.150;8.756;2023-04-06T14:56:51;10.30;;;5.90;;
17171;SDS011;8701;50.150;8.756;2023-04-06T15:00:56;11.63;;;5.73;;
17171;SDS011;8701;50.150;8.756;2023-04-06T15:04:59;10.40;;;5.57;;
17171;SDS011;8701;50.150;8.756;2023-04-06T15:09:01;11.00;;;6.30;;
17171;SDS011;8701;50.150;8.756;2023-04-06T15:13:04;12.80;;;6.23;;
17171;SDS011;8701;50.150;8.756;2023-04-06T15:17:07;11.50;;;5.83;;
17171;SDS011;8701;50.150;8.756;2023-04-06T15:21:09;10.23;;;6.03;;
17171;SDS011;8701;50.150;8.756;2023-04-06T15:25:12;11.57;;;5.60;;
17171;SDS011;8701;50.150;8.756;2023-04-06T15:29:14;11.43;;;5.70;;
17171;SDS011;8701;50.150;8.756;2023-04-06T15:33:19;10.33;;;5.60;;
17171;SDS011;8701;50.150;8.756;2023-04-06T15:37:22;7.97;;;5.03;;
17171;SDS011;8701;50.150;8.756;2023-04-06T15:41:24;11.87;;;5.67;;
17171;SDS011;8701;50.150;8.756;2023-04-06T15:45:27;12.40;;;5.93;;
17171;SDS011;8701;50.150;8.756;2023-04-06T15:49:31;11.43;;;5.40;;
17171;SDS011;8701;50.150;8.756;2023-04-06T15:53:34;11.90;;;6.00;;
17171;SDS011;8701;50.150;8.756;2023-04-06T15:57:36;8.30;;;4.70;;
17171;SDS011;8701;50.150;8.756;2023-04-06T16:01:38;9.17;;;4.93;;
17171;SDS011;8701;50.150;8.756;2023-04-06T16:05:43;11.20;;;5.10;;
17171;SDS011;8701;50.150;8.756;2023-04-06T16:09:46;13.80;;;5.37;;
17171;SDS011;8701;50.150;8.756;2023-04-06T16:13:48;20.70;;;5.00;;
17171;SDS011;8701;50.150;8.756;2023-04-06T16:17:50;12.00;;;5.57;;
17171;SDS011;8701;50.150;8.756;2023-04-06T16:21:54;11.70;;;5.80;;
17171;SDS011;8701;50.150;8.756;2023-04-06T16:25:57;12.30;;;5.90;;
17171;SDS011;8701;50.150;8.756;2023-04-06T16:30:00;12.00;;;5.33;;
17171;SDS011;8701;50.150;8.756;2023-04-06T16:34:02;11.17;;;4.17;;
17171;SDS011;8701;50.150;8.756;2023-04-06T16:38:06;10.57;;;4.93;;
17171;SDS011;8701;50.150;8.756;2023-04-06T16:42:08;9.60;;;4.50;;
17171;SDS011;8701;50.150;8.756;2023-04-06T16:46:10;8.73;;;4.40;;
17171;SDS011;8701;50.150;8.756;2023-04-06T16:50:12;7.67;;;3.80;;
17171;SDS011;8701;50.150;8.756;2023-04-06T16:54:16;11.67;;;5.00;;
17171;SDS011;8701;50.150;8.756;2023-04-06T16:58:18;9.27;;;4.57;;
17171;SDS011;8701;50.150;8.756;2023-04-06T17:02:20;7.90;;;4.43;;
17171;SDS011;8701;50.150;8.756;2023-04-06T17:06:24;10.73;;;5.27;;
17171;SDS011;8701;50.150;8.756;2023-04-06T17:10:28;8.90;;;4.60;;
17171;SDS011;8701;50.150;8.756;2023-04-06T17:14:30;9.50;;;4.87;;
17171;SDS011;8701;50.150;8.756;2023-04-06T17:18:33;7.03;;;4.00;;
17171;SDS011;8701;50.150;8.756;2023-04-06T17:22:35;9.83;;;4.00;;
17171;SDS011;8701;50.150;8.756;2023-04-06T17:26:39;8.40;;;4.40;;
17171;SDS011;8701;50.150;8.756;2023-04-06T17:30:41;7.03;;;3.60;;
17171;SDS011;8701;50.150;8.756;2023-04-06T17:34:43;7.77;;;3.80;;
17171;SDS011;8701;50.150;8.756;2023-04-06T17:38:45;8.83;;;3.83;;
17171;SDS011;8701;50.150;8.756;2023-04-06T17:42:49;6.73;;;3.23;;
17171;SDS011;8701;50.150;8.756;2023-04-06T17:46:52;10.10;;;3.80;;
17171;SDS011;8701;50.150;8.756;2023-04-06T17:50:54;8.70;;;4.23;;
17171;SDS011;8701;50.150;8.756;2023-04-06T17:54:56;7.30;;;3.30;;
17171;SDS011;8701;50.150;8.756;2023-04-06T17:59:00;6.27;;;3.10;;
17171;SDS011;8701;50.150;8.756;2023-04-06T18:03:07;6.43;;;2.80;;
17171;SDS011;8701;50.150;8.756;2023-04-06T18:07:09;6.63;;;2.80;;
17171;SDS011;8701;50.150;8.756;2023-04-06T18:11:15;5.90;;;2.63;;
17171;SDS011;8701;50.150;8.756;2023-04-06T18:15:19;3.80;;;1.90;;
17171;SDS011;8701;50.150;8.756;2023-04-06T18:19:21;5.47;;;2.90;;
17171;SDS011;8701;50.150;8.756;2023-04-06T18:23:24;7.60;;;2.70;;
17171;SDS011;8701;50.150;8.756;2023-04-06T18:27:26;8.20;;;2.43;;
17171;SDS011;8701;50.150;8.756;2023-04-06T18:31:29;9.40;;;2.53;;
17171;SDS011;8701;50.150;8.756;2023-04-06T18:35:32;5.40;;;2.73;;
17171;SDS011;8701;50.150;8.756;2023-04-06T18:39:34;5.60;;;3.00;;
17171;SDS011;8701;50.150;8.756;2023-04-06T18:43:36;6.70;;;3.47;;
17171;SDS011;8701;50.150;8.756;2023-04-06T18:47:41;7.10;;;3.40;;
17171;SDS011;8701;50.150;8.756;2023-04-06T18:51:43;6.13;;;3.27;;
17171;SDS011;8701;50.150;8.756;2023-04-06T18:55:45;7.50;;;3.93;;
17171;SDS011;8701;50.150;8.756;2023-04-06T18:59:48;5.83;;;3.30;;
17171;SDS011;8701;50.150;8.756;2023-04-06T19:03:52;7.20;;;3.50;;
17171;SDS011;8701;50.150;8.756;2023-04-06T19:07:54;7.57;;;3.40;;
17171;SDS011;8701;50.150;8.756;2023-04-06T19:11:56;7.73;;;3.93;;
17171;SDS011;8701;50.150;8.756;2023-04-06T19:15:58;8.10;;;4.47;;
17171;SDS011;8701;50.150;8.756;2023-04-06T19:20:02;6.90;;;3.63;;
17171;SDS011;8701;50.150;8.756;2023-04-06T19:24:05;8.90;;;4.77;;
17171;SDS011;8701;50.150;8.756;2023-04-06T19:28:07;5.53;;;3.30;;
17171;SDS011;8701;50.150;8.756;2023-04-06T19:32:10;10.00;;;4.73;;
17171;SDS011;8701;50.150;8.756;2023-04-06T19:36:14;7.43;;;3.40;;
17171;SDS011;8701;50.150;8.756;2023-04-06T19:40:16;7.93;;;3.70;;
17171;SDS011;8701;50.150;8.756;2023-04-06T19:44:18;7.93;;;4.17;;
17171;SDS011;8701;50.150;8.756;2023-04-06T19:48:20;8.03;;;3.60;;
17171;SDS011;8701;50.150;8.756;2023-04-06T19:52:24;11.20;;;3.60;;
17171;SDS011;8701;50.150;8.756;2023-04-06T19:56:27;13.10;;;4.87;;
17171;SDS011;8701;50.150;8.756;2023-04-06T20:00:30;9.40;;;5.47;;
17171;SDS011;8701;50.150;8.756;2023-04-06T20:04:33;13.83;;;5.70;;
17171;SDS011;8701;50.150;8.756;2023-04-06T20:08:37;12.20;;;7.00;;
17171;SDS011;8701;50.150;8.756;2023-04-06T20:12:39;14.03;;;6.40;;
17171;SDS011;8701;50.150;8.756;2023-04-06T20:16:42;11.47;;;6.13;;
17171;SDS011;8701;50.150;8.756;2023-04-06T20:20:44;11.97;;;5.70;;
17171;SDS011;8701;50.150;8.756;2023-04-06T20:24:48;10.30;;;5.67;;
17171;SDS011;8701;50.150;8.756;2023-04-06T20:28:50;11.97;;;5.87;;
17171;SDS011;8701;50.150;8.756;2023-04-06T20:32:52;9.80;;;5.17;;
17171;SDS011;8701;50.150;8.756;2023-04-06T20:36:54;12.13;;;5.03;;
17171;SDS011;8701;50.150;8.756;2023-04-06T20:41:01;9.47;;;4.80;;
17171;SDS011;8701;50.150;8.756;2023-04-06T20:45:03;9.73;;;5.00;;
17171;SDS011;8701;50.150;8.756;2023-04-06T20:49:06;8.13;;;4.33;;
17171;SDS011;8701;50.150;8.756;2023-04-06T20:53:09;8.03;;;4.10;;
17171;SDS011;8701;50.150;8.756;2023-04-06T20:57:12;8.60;;;4.87;;
17171;SDS011;8701;50.150;8.756;2023-04-06T21:01:15;10.40;;;5.20;;
17171;SDS011;8701;50.150;8.756;2023-04-06T21:05:18;8.67;;;3.97;;
17171;SDS011;8701;50.150;8.756;2023-04-06T21:09:20;10.77;;;5.53;;
17171;SDS011;8701;50.150;8.756;2023-04-06T21:13:25;19.83;;;5.70;;
17171;SDS011;8701;50.150;8.756;2023-04-06T21:17:28;13.23;;;5.30;;
17171;SDS011;8701;50.150;8.756;2023-04-06T21:21:30;9.97;;;5.83;;
17171;SDS011;8701;50.150;8.756;2023-04-06T21:25:34;11.40;;;6.07;;
17171;SDS011;8701;50.150;8.756;2023-04-06T21:29:38;10.87;;;6.73;;
17171;SDS011;8701;50.150;8.756;2023-04-06T21:33:41;12.40;;;6.90;;
17171;SDS011;8701;50.150;8.756;2023-04-06T21:37:43;15.50;;;6.90;;
17171;SDS011;8701;50.150;8.756;2023-04-06T21:41:45;14.50;;;7.50;;
17171;SDS011;8701;50.150;8.756;2023-04-06T21:45:49;10.53;;;5.60;;
17171;SDS011;8701;50.150;8.756;2023-04-06T21:49:52;12.93;;;7.67;;
17171;SDS011;8701;50.150;8.756;2023-04-06T21:53:54;13.30;;;7.73;;
17171;SDS011;8701;50.150;8.756;2023-04-06T21:57:57;13.57;;;7.70;;
17171;SDS011;8701;50.150;8.756;2023-04-06T22:02:00;11.87;;;7.17;;
17171;SDS011;8701;50.150;8.756;2023-04-06T22:06:03;12.10;;;6.93;;
17171;SDS011;8701;50.150;8.756;2023-04-06T22:10:06;12.20;;;7.57;;
17171;SDS011;8701;50.150;8.756;2023-04-06T22:14:08;13.83;;;7.80;;
17171;SDS011;8701;50.150;8.756;2023-04-06T22:18:13;14.23;;;8.17;;
17171;SDS011;8701;50.150;8.756;2023-04-06T22:22:16;14.93;;;8.50;;
17171;SDS011;8701;50.150;8.756;2023-04-06T22:26:18;14.73;;;9.13;;
17171;SDS011;8701;50.150;8.756;2023-04-06T22:30:20;16.43;;;9.70;;
17171;SDS011;8701;50.150;8.756;2023-04-06T22:34:24;17.50;;;9.13;;
17171;SDS011;8701;50.150;8.756;2023-04-06T22:38:26;18.83;;;10.87;;
17171;SDS011;8701;50.150;8.756;2023-04-06T22:42:28;17.60;;;9.00;;
17171;SDS011;8701;50.150;8.756;2023-04-06T22:46:30;17.73;;;9.53;;
17171;SDS011;8701;50.150;8.756;2023-04-06T22:50:34;15.30;;;9.37;;
17171;SDS011;8701;50.150;8.756;2023-04-06T22:54:36;17.57;;;9.63;;
17171;SDS011;8701;50.150;8.756;2023-04-06T22:58:38;14.97;;;9.53;;
17171;SDS011;8701;50.150;8.756;2023-04-06T23:02:41;16.37;;;9.73;;
17171;SDS011;8701;50.150;8.756;2023-04-06T23:06:44;16.27;;;9.50;;
17171;SDS011;8701;50.150;8.756;2023-04-06T23:10:46;17.53;;;10.40;;
17171;SDS011;8701;50.150;8.756;2023-04-06T23:14:50;15.60;;;10.03;;
17171;SDS011;8701;50.150;8.756;2023-04-06T23:18:52;17.70;;;9.27;;
17171;SDS011;8701;50.150;8.756;2023-04-06T23:22:56;19.13;;;11.63;;
17171;SDS011;8701;50.150;8.756;2023-04-06T23:26:58;17.97;;;10.60;;
17171;SDS011;8701;50.150;8.756;2023-04-06T23:31:01;16.60;;;9.97;;
17171;SDS011;8701;50.150;8.756;2023-04-06T23:35:03;15.70;;;9.20;;
17171;SDS011;8701;50.150;8.756;2023-04-06T23:39:07;20.03;;;10.30;;
17171;SDS011;8701;50.150;8.756;2023-04-06T23:43:09;18.40;;;10.50;;
17171;SDS011;8701;50.150;8.756;2023-04-06T23:47:12;16.37;;;9.70;;
17171;SDS011;8701;50.150;8.756;2023-04-06T23:51:14;19.27;;;10.00;;
17171;SDS011;8701;50.150;8.756;2023-04-06T23:55:18;18.20;;;11.03;;
17171;SDS011;8701;50.150;8.756;2023-04-06T23:59:20;17.50;;;11.40;;
